createdAt,value
2023-05-02T00:00:03.649Z,9.11
2023-05-02T00:02:34.534Z,9.10
2023-05-02T00:05:02.801Z,9.07
2023-05-02T00:07:30.596Z,9.02
2023-05-02T00:10:00.258Z,8.96
2023-05-02T00:12:28.742Z,8.92
2023-05-02T00:14:56.320Z,8.88
2023-05-02T00:17:24.076Z,8.85
2023-05-02T00:19:52.095Z,8.85
2023-05-02T00:22:20.119Z,8.82
2023-05-02T00:24:47.878Z,8.78
2023-05-02T00:27:15.688Z,8.77
2023-05-02T00:29:43.446Z,8.76
2023-05-02T00:32:11.235Z,8.74
2023-05-02T00:34:39.151Z,8.73
2023-05-02T00:37:07.714Z,8.71
2023-05-02T00:39:35.952Z,8.71
2023-05-02T00:42:03.949Z,8.69
2023-05-02T00:44:32.228Z,8.66
2023-05-02T00:47:01.725Z,8.64
2023-05-02T00:49:30.563Z,8.63
2023-05-02T00:51:58.897Z,8.61
2023-05-02T00:54:26.539Z,8.59
2023-05-02T00:56:54.516Z,8.58
2023-05-02T00:59:22.480Z,8.56
2023-05-02T01:02:10.909Z,8.54
2023-05-02T01:05:11.385Z,8.53
2023-05-02T01:08:10.733Z,8.51
2023-05-02T01:10:50.000Z,8.47
2023-05-02T01:13:25.769Z,8.45
2023-05-02T01:15:56.322Z,8.42
2023-05-02T01:18:28.241Z,8.39
2023-05-02T01:21:06.420Z,8.36
2023-05-02T01:24:05.997Z,8.31
2023-05-02T01:26:58.131Z,8.25
2023-05-02T01:29:28.012Z,8.18
2023-05-02T01:31:58.351Z,8.10
2023-05-02T01:34:28.758Z,8.05
2023-05-02T01:36:58.791Z,7.97
2023-05-02T01:39:27.428Z,7.88
2023-05-02T01:41:58.299Z,7.83
2023-05-02T01:44:29.020Z,7.77
2023-05-02T01:46:58.418Z,7.70
2023-05-02T01:49:29.020Z,7.64
2023-05-02T01:52:02.744Z,7.61
2023-05-02T01:54:33.465Z,7.56
2023-05-02T01:57:03.636Z,7.54
2023-05-02T01:59:34.318Z,7.50
2023-05-02T02:02:04.377Z,7.48
2023-05-02T02:04:35.301Z,7.43
2023-05-02T02:07:06.960Z,7.39
2023-05-02T02:09:34.978Z,7.34
2023-05-02T02:12:26.580Z,7.30
2023-05-02T02:15:15.230Z,7.25
2023-05-02T02:17:56.905Z,7.15
2023-05-02T02:20:27.079Z,7.13
2023-05-02T02:22:57.793Z,7.10
2023-05-02T02:25:26.933Z,7.06
2023-05-02T02:27:55.273Z,7.02
2023-05-02T02:30:23.124Z,6.97
2023-05-02T02:32:51.190Z,6.95
2023-05-02T02:35:20.115Z,6.93
2023-05-02T02:38:03.504Z,6.92
2023-05-02T02:40:36.780Z,6.89
2023-05-02T02:43:18.534Z,6.85
2023-05-02T02:45:54.364Z,6.81
2023-05-02T02:49:18.254Z,6.79
2023-05-02T02:52:06.715Z,6.76
2023-05-02T02:54:48.835Z,6.75
2023-05-02T02:57:21.726Z,6.72
2023-05-02T03:00:10.452Z,6.72
2023-05-02T03:02:42.043Z,6.72
2023-05-02T03:05:11.331Z,6.74
2023-05-02T03:07:39.302Z,6.74
2023-05-02T03:10:07.914Z,6.76
2023-05-02T03:12:36.156Z,6.78
2023-05-02T03:15:12.986Z,6.81
2023-05-02T03:17:40.870Z,6.83
2023-05-02T03:20:09.102Z,6.85
2023-05-02T03:22:36.814Z,6.89
2023-05-02T03:25:05.745Z,6.93
2023-05-02T03:27:34.195Z,6.97
2023-05-02T03:30:03.036Z,7.01
2023-05-02T03:32:32.346Z,7.10
2023-05-02T03:35:00.636Z,7.28
2023-05-02T03:37:30.666Z,7.70
2023-05-02T03:39:58.738Z,8.23
2023-05-02T03:42:29.906Z,8.81
2023-05-02T03:44:58.645Z,9.46
2023-05-02T03:47:29.309Z,10.19
2023-05-02T03:49:57.744Z,10.97
2023-05-02T03:52:26.474Z,11.73
2023-05-02T03:54:54.583Z,12.30
2023-05-02T03:57:22.742Z,12.78
2023-05-02T03:59:51.167Z,13.21
2023-05-02T04:02:20.914Z,13.75
2023-05-02T04:04:49.660Z,14.39
2023-05-02T04:07:19.077Z,15.06
2023-05-02T04:09:48.922Z,15.67
2023-05-02T04:12:16.613Z,16.31
2023-05-02T04:14:46.223Z,16.87
2023-05-02T04:17:16.433Z,17.38
2023-05-02T04:19:48.852Z,17.81
2023-05-02T04:22:17.574Z,18.09
2023-05-02T04:24:47.361Z,18.56
2023-05-02T04:27:16.010Z,18.93
2023-05-02T04:29:50.254Z,19.18
2023-05-02T04:32:20.198Z,19.41
2023-05-02T04:34:48.983Z,19.62
2023-05-02T04:37:17.318Z,19.54
2023-05-02T04:39:48.125Z,19.58
2023-05-02T04:42:21.044Z,19.57
2023-05-02T04:44:58.426Z,19.70
2023-05-02T04:47:26.564Z,19.80
2023-05-02T04:49:55.553Z,19.91
2023-05-02T04:52:23.598Z,20.08
2023-05-02T04:54:51.818Z,20.26
2023-05-02T04:57:23.205Z,20.47
2023-05-02T04:59:53.057Z,20.61
2023-05-02T05:02:22.863Z,20.87
2023-05-02T05:04:50.710Z,21.02
2023-05-02T05:07:20.081Z,21.14
2023-05-02T05:09:51.226Z,21.17
2023-05-02T05:12:21.097Z,21.26
2023-05-02T05:14:50.090Z,21.16
2023-05-02T05:17:17.966Z,20.97
2023-05-02T05:19:45.819Z,20.92
2023-05-02T05:22:15.004Z,20.70
2023-05-02T05:24:43.291Z,20.48
2023-05-02T05:27:11.092Z,20.31
2023-05-02T05:29:38.800Z,20.19
2023-05-02T05:32:06.598Z,20.17
2023-05-02T05:34:35.005Z,20.17
2023-05-02T05:37:02.828Z,20.23
2023-05-02T05:39:30.594Z,20.34
2023-05-02T05:42:01.043Z,20.39
2023-05-02T05:44:29.089Z,20.48
2023-05-02T05:46:57.304Z,20.63
2023-05-02T05:49:27.023Z,20.81
2023-05-02T05:51:56.616Z,20.78
2023-05-02T05:54:24.572Z,20.93
2023-05-02T05:56:52.562Z,20.88
2023-05-02T05:59:20.908Z,21.00
2023-05-02T06:01:49.121Z,21.15
2023-05-02T06:04:18.025Z,21.18
2023-05-02T06:06:47.440Z,21.09
2023-05-02T06:09:15.381Z,21.17
2023-05-02T06:11:43.132Z,21.26
2023-05-02T06:14:10.960Z,21.35
2023-05-02T06:16:40.675Z,21.30
2023-05-02T06:19:09.221Z,21.36
2023-05-02T06:21:37.564Z,21.33
2023-05-02T06:24:05.951Z,21.37
2023-05-02T06:26:34.247Z,21.61
2023-05-02T06:29:02.141Z,21.80
2023-05-02T06:31:29.630Z,22.02
2023-05-02T06:33:57.336Z,22.23
2023-05-02T06:36:25.556Z,22.36
2023-05-02T06:38:53.239Z,22.38
2023-05-02T06:41:21.678Z,22.66
2023-05-02T06:43:49.551Z,23.02
2023-05-02T06:46:19.463Z,23.30
2023-05-02T06:48:47.092Z,23.58
2023-05-02T06:51:15.556Z,23.87
2023-05-02T06:53:43.371Z,24.05
2023-05-02T06:56:11.126Z,23.87
2023-05-02T06:58:38.858Z,23.85
2023-05-02T07:01:06.501Z,23.97
2023-05-02T07:03:34.339Z,24.13
2023-05-02T07:06:01.944Z,23.95
2023-05-02T07:08:29.890Z,23.97
2023-05-02T07:10:57.978Z,24.01
2023-05-02T07:13:25.697Z,24.08
2023-05-02T07:15:54.132Z,24.05
2023-05-02T07:18:23.762Z,23.94
2023-05-02T07:20:54.583Z,23.97
2023-05-02T07:23:23.940Z,24.03
2023-05-02T07:25:51.813Z,24.19
2023-05-02T07:28:19.566Z,24.25
2023-05-02T07:30:48.054Z,24.37
2023-05-02T07:33:15.884Z,24.44
2023-05-02T07:35:43.853Z,24.58
2023-05-02T07:38:11.727Z,24.69
2023-05-02T07:40:39.433Z,24.74
2023-05-02T07:43:08.772Z,24.76
2023-05-02T07:45:36.798Z,24.61
2023-05-02T07:48:04.773Z,24.59
2023-05-02T07:50:32.506Z,24.66
2023-05-02T07:53:00.335Z,24.74
2023-05-02T07:55:28.701Z,24.86
2023-05-02T07:57:56.532Z,25.03
2023-05-02T08:00:24.570Z,25.24
2023-05-02T08:02:52.434Z,25.42
2023-05-02T08:05:20.410Z,25.55
2023-05-02T08:07:49.414Z,25.64
2023-05-02T08:10:17.357Z,25.82
2023-05-02T08:12:45.059Z,25.87
2023-05-02T08:15:13.570Z,25.80
2023-05-02T08:17:41.467Z,25.73
2023-05-02T08:20:09.889Z,25.71
2023-05-02T08:22:37.801Z,25.79
2023-05-02T08:25:06.083Z,25.77
2023-05-02T08:27:34.889Z,25.54
2023-05-02T08:30:02.995Z,25.57
2023-05-02T08:32:32.841Z,25.60
2023-05-02T08:35:02.125Z,25.76
2023-05-02T08:37:30.783Z,25.51
2023-05-02T08:40:00.505Z,25.27
2023-05-02T08:42:31.410Z,25.44
2023-05-02T08:44:59.115Z,25.79
2023-05-02T08:47:29.590Z,25.82
2023-05-02T08:49:58.529Z,25.70
2023-05-02T08:52:27.378Z,25.87
2023-05-02T08:54:57.125Z,26.11
2023-05-02T08:57:25.398Z,26.27
2023-05-02T08:59:53.350Z,26.15
2023-05-02T09:02:53.654Z,25.87
2023-05-02T09:05:24.726Z,25.46
2023-05-02T09:07:54.207Z,24.83
2023-05-02T09:10:23.921Z,24.65
2023-05-02T09:12:51.896Z,24.87
2023-05-02T09:15:21.054Z,24.89
2023-05-02T09:17:49.430Z,24.71
2023-05-02T09:20:17.433Z,24.79
2023-05-02T09:22:51.005Z,25.09
2023-05-02T09:25:20.923Z,25.30
2023-05-02T09:27:55.533Z,25.26
2023-05-02T09:30:25.708Z,25.36
2023-05-02T09:32:57.130Z,25.57
2023-05-02T09:35:27.540Z,25.86
2023-05-02T09:53:21.664Z,25.82
2023-05-02T09:56:04.112Z,25.25
2023-05-02T09:58:31.946Z,25.09
2023-05-02T10:01:01.851Z,25.27
2023-05-02T10:03:31.604Z,25.41
2023-05-02T10:05:59.668Z,25.50
2023-05-02T10:08:28.911Z,25.65
2023-05-02T10:10:59.594Z,25.78
2023-05-02T10:13:29.838Z,25.65
2023-05-02T10:16:08.376Z,25.70
2023-05-02T10:18:56.667Z,25.39
2023-05-02T10:21:27.672Z,24.98
2023-05-02T10:23:56.090Z,24.82
2023-05-02T10:26:24.484Z,24.67
2023-05-02T10:28:52.859Z,24.67
2023-05-02T10:31:21.126Z,24.75
2023-05-02T10:33:55.413Z,24.89
2023-05-02T10:36:23.553Z,25.08
2023-05-02T10:38:52.674Z,25.04
2023-05-02T10:41:27.445Z,24.99
2023-05-02T10:43:55.705Z,25.20
2023-05-02T10:46:33.404Z,25.44
2023-05-02T10:49:08.112Z,25.23
2023-05-02T10:51:40.838Z,25.14
2023-05-02T10:54:24.072Z,25.37
2023-05-02T10:57:05.205Z,25.45
2023-05-02T10:59:40.472Z,25.50
2023-05-02T11:02:32.444Z,25.33
2023-05-02T11:05:05.854Z,25.43
2023-05-02T11:07:37.016Z,25.00
2023-05-02T11:10:22.286Z,25.03
2023-05-02T11:12:56.417Z,24.74
2023-05-02T11:15:32.882Z,24.59
2023-05-02T11:18:13.238Z,24.78
2023-05-02T11:20:43.960Z,24.91
2023-05-02T11:23:24.223Z,25.10
2023-05-02T11:25:55.304Z,25.26
2023-05-02T11:28:49.013Z,25.29
2023-05-02T11:31:35.071Z,25.13
2023-05-02T11:34:04.248Z,25.29
2023-05-02T11:36:34.430Z,25.40
2023-05-02T11:39:05.331Z,25.50
2023-05-02T11:41:44.863Z,24.90
2023-05-02T11:44:22.004Z,24.61
2023-05-02T11:46:56.179Z,24.40
2023-05-02T11:49:25.025Z,24.45
2023-05-02T11:52:00.910Z,24.26
2023-05-02T11:54:31.169Z,24.47
2023-05-02T11:57:07.833Z,24.63
2023-05-02T12:00:02.120Z,24.44
2023-05-02T12:02:40.627Z,24.52
2023-05-02T12:05:13.096Z,24.18
2023-05-02T12:07:44.707Z,24.17
2023-05-02T12:10:14.564Z,24.00
2023-05-02T12:12:44.820Z,24.13
2023-05-02T12:15:13.068Z,24.15
2023-05-02T12:17:45.016Z,24.01
2023-05-02T12:20:17.000Z,24.12
2023-05-02T12:22:48.098Z,24.05
2023-05-02T12:25:18.338Z,24.15
2023-05-02T12:28:04.238Z,24.10
2023-05-02T12:30:34.190Z,24.21
2023-05-02T12:33:02.869Z,24.39
2023-05-02T12:35:31.372Z,24.38
2023-05-02T12:38:16.795Z,24.48
2023-05-02T12:40:53.688Z,24.65
2023-05-02T12:43:21.642Z,24.91
2023-05-02T12:45:52.382Z,25.19
2023-05-02T12:48:27.883Z,25.29
2023-05-02T12:50:55.819Z,24.98
2023-05-02T12:53:43.850Z,25.00
2023-05-02T12:56:12.857Z,25.10
2023-05-02T12:58:48.854Z,25.24
2023-05-02T13:01:16.892Z,25.41
2023-05-02T13:03:44.590Z,25.34
2023-05-02T13:06:12.573Z,25.36
2023-05-02T13:08:40.608Z,25.40
2023-05-02T13:11:08.623Z,25.39
2023-05-02T13:13:36.124Z,25.35
2023-05-02T13:16:04.554Z,25.43
2023-05-02T13:18:32.378Z,25.46
2023-05-02T13:21:00.192Z,25.52
2023-05-02T13:23:28.031Z,25.43
2023-05-02T13:25:56.807Z,25.31
2023-05-02T13:28:26.945Z,25.20
2023-05-02T13:30:55.099Z,25.16
2023-05-02T13:33:24.181Z,25.05
2023-05-02T13:35:54.012Z,25.06
2023-05-02T13:38:23.377Z,24.98
2023-05-02T13:40:52.541Z,24.81
2023-05-02T13:43:28.213Z,24.72
2023-05-02T13:45:57.057Z,24.62
2023-05-02T13:48:25.055Z,24.68
2023-05-02T13:50:58.729Z,24.81
2023-05-02T13:53:26.550Z,24.83
2023-05-02T13:55:55.837Z,24.82
2023-05-02T13:58:23.529Z,24.77
2023-05-02T14:00:51.481Z,24.58
2023-05-02T14:03:19.645Z,24.50
2023-05-02T14:05:47.317Z,24.54
2023-05-02T14:08:16.938Z,24.55
2023-05-02T14:10:46.621Z,24.60
2023-05-02T14:13:14.702Z,24.66
2023-05-02T14:15:42.704Z,24.49
2023-05-02T14:18:10.413Z,24.47
2023-05-02T14:20:38.086Z,24.46
2023-05-02T14:23:07.575Z,24.38
2023-05-02T14:25:37.219Z,24.41
2023-05-02T14:28:05.447Z,24.39
2023-05-02T14:30:33.608Z,24.43
2023-05-02T14:33:01.837Z,24.43
2023-05-02T14:35:29.367Z,24.32
2023-05-02T14:37:57.610Z,24.19
2023-05-02T14:40:28.555Z,24.19
2023-05-02T14:42:56.288Z,24.09
2023-05-02T14:45:24.076Z,24.08
2023-05-02T14:47:51.868Z,24.13
2023-05-02T14:50:19.625Z,24.16
2023-05-02T14:52:47.568Z,24.16
2023-05-02T14:55:15.978Z,24.05
2023-05-02T14:57:43.547Z,24.01
2023-05-02T15:00:12.281Z,24.01
2023-05-02T15:02:43.835Z,24.08
2023-05-02T15:05:12.038Z,23.97
2023-05-02T15:07:40.326Z,24.00
2023-05-02T15:10:08.724Z,24.03
2023-05-02T15:12:39.294Z,24.05
2023-05-02T15:15:09.408Z,24.09
2023-05-02T15:17:37.482Z,24.07
2023-05-02T15:20:07.698Z,24.04
2023-05-02T15:22:35.556Z,23.98
2023-05-02T15:25:05.371Z,23.94
2023-05-02T15:27:33.341Z,23.93
2023-05-02T15:30:02.598Z,23.94
2023-05-02T15:32:33.327Z,23.89
2023-05-02T15:35:01.076Z,23.86
2023-05-02T15:37:31.869Z,23.82
2023-05-02T15:40:00.131Z,23.76
2023-05-02T15:42:28.267Z,23.63
2023-05-02T15:44:56.069Z,23.52
2023-05-02T15:47:25.742Z,23.43
2023-05-02T15:49:54.605Z,23.42
2023-05-02T15:52:22.461Z,23.36
2023-05-02T15:54:54.905Z,23.30
2023-05-02T15:57:23.020Z,23.31
2023-05-02T15:59:51.262Z,23.33
2023-05-02T16:02:31.716Z,23.30
2023-05-02T16:08:15.017Z,23.04
2023-05-02T16:10:42.980Z,22.94
2023-05-02T16:13:11.038Z,22.89
2023-05-02T16:15:39.357Z,22.82
2023-05-02T16:18:07.216Z,22.74
2023-05-02T16:20:37.541Z,22.70
2023-05-02T16:23:09.869Z,22.65
2023-05-02T16:25:42.484Z,22.57
2023-05-02T16:49:10.572Z,21.87
2023-05-02T16:51:41.788Z,21.78
2023-05-02T16:54:13.184Z,21.72
2023-05-02T16:56:43.787Z,21.66
2023-05-02T16:59:17.879Z,21.58
2023-05-02T17:01:49.476Z,21.52
2023-05-02T17:04:17.986Z,21.47
2023-05-02T17:09:43.550Z,21.33
2023-05-02T17:12:21.317Z,21.26
2023-05-02T17:18:02.898Z,21.06
2023-05-02T17:20:32.238Z,20.88
2023-05-02T17:23:02.125Z,20.77
2023-05-02T17:25:39.010Z,20.67
2023-05-02T17:31:43.829Z,20.39
2023-05-02T17:34:21.672Z,20.15
2023-05-02T17:36:56.396Z,19.93
2023-05-02T17:42:27.206Z,19.61
2023-05-02T17:45:11.737Z,19.43
2023-05-02T17:47:40.280Z,19.31
2023-05-02T17:50:11.400Z,19.20
2023-05-02T17:52:42.463Z,19.10
2023-05-02T17:55:10.450Z,18.99
2023-05-02T17:57:38.833Z,18.87
2023-05-02T18:00:08.602Z,18.80
2023-05-02T18:02:39.522Z,18.71
2023-05-02T18:05:10.993Z,18.59
2023-05-02T18:07:39.436Z,18.50
2023-05-02T18:10:09.960Z,18.37
2023-05-02T18:12:42.858Z,18.24
2023-05-02T18:15:12.056Z,18.11
2023-05-02T18:17:48.192Z,18.01
2023-05-02T18:20:26.585Z,17.92
2023-05-02T18:23:01.668Z,17.78
2023-05-02T18:25:35.984Z,17.63
2023-05-02T18:28:13.473Z,17.49
2023-05-02T18:30:50.130Z,17.37
2023-05-02T18:33:39.641Z,17.25
2023-05-02T18:36:08.108Z,17.14
2023-05-02T18:38:37.097Z,17.05
2023-05-02T18:41:51.374Z,16.93
2023-05-02T18:44:32.323Z,16.85
2023-05-02T18:47:06.674Z,16.69
2023-05-02T18:49:46.007Z,16.54
2023-05-02T18:52:36.041Z,16.38
2023-05-02T18:55:08.432Z,16.26
2023-05-02T18:57:44.106Z,16.15
2023-05-02T19:00:15.148Z,16.06
2023-05-02T19:02:48.043Z,16.02
2023-05-02T19:05:18.173Z,16.03
2023-05-02T19:07:46.387Z,16.05
2023-05-02T19:10:51.225Z,16.05
2023-05-02T19:13:42.945Z,16.06
2023-05-02T19:16:13.685Z,16.15
2023-05-02T19:18:48.670Z,16.28
2023-05-02T19:21:17.011Z,16.28
2023-05-02T19:23:55.630Z,16.50
2023-05-02T19:26:32.477Z,16.60
2023-05-02T19:29:29.125Z,16.55
2023-05-02T19:32:06.507Z,16.67
2023-05-02T19:34:44.020Z,16.53
2023-05-02T19:37:12.260Z,16.67
2023-05-02T19:40:23.520Z,16.66
2023-05-02T19:46:06.865Z,16.62
2023-05-02T19:48:44.898Z,16.56
2023-05-02T19:51:26.085Z,16.53
2023-05-02T19:54:01.020Z,16.38
2023-05-02T19:56:52.552Z,16.46
2023-05-02T19:59:44.213Z,16.32
2023-05-02T20:02:14.832Z,16.41
2023-05-02T20:04:44.662Z,16.30
2023-05-02T20:07:43.375Z,16.38
2023-05-02T20:10:23.703Z,16.34
2023-05-02T20:12:55.832Z,16.30
2023-05-02T20:15:26.434Z,16.26
2023-05-02T20:17:57.993Z,16.20
2023-05-02T20:20:28.302Z,16.17
2023-05-02T20:22:59.328Z,16.15
2023-05-02T20:25:42.646Z,16.12
2023-05-02T20:28:22.653Z,16.10
2023-05-02T20:31:04.399Z,16.07
2023-05-02T20:33:44.718Z,16.05
2023-05-02T20:42:45.711Z,15.82
2023-05-02T20:45:33.576Z,15.75
2023-05-02T20:48:04.557Z,15.67
2023-05-02T20:50:37.134Z,15.64
2023-05-02T20:53:05.717Z,15.58
2023-05-02T20:55:35.638Z,15.47
2023-05-02T20:58:05.831Z,15.39
2023-05-02T21:00:36.115Z,15.27
2023-05-02T21:03:06.503Z,15.13
2023-05-02T21:05:41.770Z,14.99
2023-05-02T21:08:10.256Z,14.87
2023-05-02T21:10:39.080Z,14.74
2023-05-02T21:13:08.468Z,14.61
2023-05-02T21:15:37.718Z,14.55
2023-05-02T21:18:06.900Z,14.46
2023-05-02T21:20:35.607Z,14.38
2023-05-02T21:23:03.680Z,14.29
2023-05-02T21:25:34.801Z,14.24
2023-05-02T21:28:09.902Z,14.15
2023-05-02T21:30:36.508Z,14.11
2023-05-02T21:33:04.863Z,14.05
2023-05-02T21:35:34.063Z,13.99
2023-05-02T21:38:05.958Z,13.91
2023-05-02T21:40:45.633Z,13.83
2023-05-02T21:43:18.402Z,13.76
2023-05-02T21:45:55.362Z,13.70
2023-05-02T21:48:27.664Z,13.64
2023-05-02T21:50:58.950Z,13.59
2023-05-02T21:53:27.290Z,13.55
2023-05-02T21:55:55.963Z,13.53
2023-05-02T21:58:24.350Z,13.50
2023-05-02T22:00:52.570Z,13.36
2023-05-02T22:03:22.934Z,13.42
2023-05-02T22:05:53.381Z,13.35
2023-05-02T22:08:23.569Z,13.31
2023-05-02T22:10:52.645Z,13.26
2023-05-02T22:13:20.766Z,13.17
2023-05-02T22:15:50.300Z,13.08
2023-05-02T22:18:18.511Z,12.96
2023-05-02T22:20:47.744Z,12.82
2023-05-02T22:23:16.652Z,12.73
2023-05-02T22:25:46.092Z,12.62
2023-05-02T22:28:14.030Z,12.55
2023-05-02T22:30:42.696Z,12.46
2023-05-02T22:33:11.526Z,12.38
2023-05-02T22:35:39.897Z,12.29
2023-05-02T22:38:10.672Z,12.24
2023-05-02T22:40:38.858Z,12.14
2023-05-02T22:43:07.567Z,12.01
2023-05-02T22:45:36.799Z,11.89
2023-05-02T22:48:07.864Z,11.81
2023-05-02T22:50:35.821Z,11.75
2023-05-02T22:53:04.141Z,11.67
2023-05-02T22:55:32.585Z,11.60
2023-05-02T22:58:00.483Z,11.54
2023-05-02T23:00:30.429Z,11.45
2023-05-02T23:03:00.008Z,11.37
2023-05-02T23:05:29.425Z,11.32
2023-05-02T23:07:57.650Z,11.30
2023-05-02T23:10:25.522Z,11.28
2023-05-02T23:12:53.406Z,11.24
2023-05-02T23:15:20.928Z,11.22
2023-05-02T23:17:49.084Z,11.19
2023-05-02T23:20:18.802Z,11.11
2023-05-02T23:22:46.766Z,11.03
2023-05-02T23:25:15.273Z,10.94
2023-05-02T23:27:43.372Z,10.88
2023-05-02T23:30:12.080Z,10.86
2023-05-02T23:32:40.310Z,10.84
2023-05-02T23:35:10.647Z,10.81
2023-05-02T23:37:40.024Z,10.78
2023-05-02T23:40:12.960Z,10.75
2023-05-02T23:42:42.277Z,10.71
2023-05-02T23:45:12.969Z,10.66
2023-05-02T23:47:41.257Z,10.57
2023-05-02T23:50:12.984Z,10.48
2023-05-02T23:52:42.128Z,10.38
2023-05-02T23:55:13.829Z,10.24
2023-05-02T23:57:42.821Z,10.12
